sensor_id;sensor_type;location;lat;lon;timestamp;P1;durP1;ratioP1;P2;durP2;ratioP2
81648;SDS011;71057;51.436;6.768;2023-08-06T00:01:31;4.10;;;3.17;;
81648;SDS011;71057;51.436;6.768;2023-08-06T00:03:56;5.22;;;3.42;;
81648;SDS011;71057;51.436;6.768;2023-08-06T00:06:21;6.33;;;3.20;;
81648;SDS011;71057;51.436;6.768;2023-08-06T00:08:46;4.60;;;3.30;;
81648;SDS011;71057;51.436;6.768;2023-08-06T00:11:12;5.43;;;3.17;;
81648;SDS011;71057;51.436;6.768;2023-08-06T00:13:37;5.18;;;2.90;;
81648;SDS011;71057;51.436;6.768;2023-08-06T00:16:12;5.50;;;3.03;;
81648;SDS011;71057;51.436;6.768;2023-08-06T00:18:38;4.88;;;3.00;;
81648;SDS011;71057;51.436;6.768;2023-08-06T00:21:03;4.60;;;3.03;;
81648;SDS011;71057;51.436;6.768;2023-08-06T00:23:28;4.23;;;3.17;;
81648;SDS011;71057;51.436;6.768;2023-08-06T00:25:54;4.00;;;3.43;;
81648;SDS011;71057;51.436;6.768;2023-08-06T00:28:19;5.63;;;2.57;;
81648;SDS011;71057;51.436;6.768;2023-08-06T00:30:44;4.60;;;3.10;;
81648;SDS011;71057;51.436;6.768;2023-08-06T00:33:09;4.63;;;3.25;;
81648;SDS011;71057;51.436;6.768;2023-08-06T00:35:34;3.53;;;3.03;;
81648;SDS011;71057;51.436;6.768;2023-08-06T00:38:00;4.00;;;2.90;;
81648;SDS011;71057;51.436;6.768;2023-08-06T00:40:25;3.67;;;3.23;;
81648;SDS011;71057;51.436;6.768;2023-08-06T00:42:50;4.80;;;2.93;;
81648;SDS011;71057;51.436;6.768;2023-08-06T00:45:15;3.77;;;2.70;;
81648;SDS011;71057;51.436;6.768;2023-08-06T00:47:41;3.27;;;2.80;;
81648;SDS011;71057;51.436;6.768;2023-08-06T00:50:07;4.20;;;2.63;;
81648;SDS011;71057;51.436;6.768;2023-08-06T00:52:32;4.22;;;2.80;;
81648;SDS011;71057;51.436;6.768;2023-08-06T00:54:58;4.63;;;2.83;;
81648;SDS011;71057;51.436;6.768;2023-08-06T00:57:24;5.27;;;2.83;;
81648;SDS011;71057;51.436;6.768;2023-08-06T00:59:49;5.60;;;2.78;;
81648;SDS011;71057;51.436;6.768;2023-08-06T01:02:14;4.40;;;3.00;;
81648;SDS011;71057;51.436;6.768;2023-08-06T01:04:40;4.23;;;2.90;;
81648;SDS011;71057;51.436;6.768;2023-08-06T01:07:09;4.10;;;2.47;;
81648;SDS011;71057;51.436;6.768;2023-08-06T01:17:12;3.63;;;2.55;;
81648;SDS011;71057;51.436;6.768;2023-08-06T01:19:37;3.42;;;2.42;;
81648;SDS011;71057;51.436;6.768;2023-08-06T01:22:02;4.23;;;2.70;;
81648;SDS011;71057;51.436;6.768;2023-08-06T01:24:28;4.05;;;2.50;;
81648;SDS011;71057;51.436;6.768;2023-08-06T01:27:14;4.20;;;2.60;;
81648;SDS011;71057;51.436;6.768;2023-08-06T01:29:43;3.53;;;2.85;;
81648;SDS011;71057;51.436;6.768;2023-08-06T01:32:10;3.58;;;2.33;;
81648;SDS011;71057;51.436;6.768;2023-08-06T01:34:36;4.72;;;2.70;;
81648;SDS011;71057;51.436;6.768;2023-08-06T01:37:02;4.47;;;2.75;;
81648;SDS011;71057;51.436;6.768;2023-08-06T01:39:27;4.43;;;2.40;;
81648;SDS011;71057;51.436;6.768;2023-08-06T01:41:53;3.87;;;2.40;;
81648;SDS011;71057;51.436;6.768;2023-08-06T01:44:18;4.73;;;2.70;;
81648;SDS011;71057;51.436;6.768;2023-08-06T01:46:43;6.45;;;3.00;;
81648;SDS011;71057;51.436;6.768;2023-08-06T01:49:08;3.87;;;2.70;;
81648;SDS011;71057;51.436;6.768;2023-08-06T01:51:33;3.13;;;2.30;;
81648;SDS011;71057;51.436;6.768;2023-08-06T01:53:59;6.47;;;3.03;;
81648;SDS011;71057;51.436;6.768;2023-08-06T01:56:24;4.95;;;3.22;;
81648;SDS011;71057;51.436;6.768;2023-08-06T01:58:49;4.25;;;2.67;;
81648;SDS011;71057;51.436;6.768;2023-08-06T02:01:14;4.60;;;2.53;;
81648;SDS011;71057;51.436;6.768;2023-08-06T02:03:39;4.37;;;2.60;;
81648;SDS011;71057;51.436;6.768;2023-08-06T02:06:05;4.40;;;2.93;;
81648;SDS011;71057;51.436;6.768;2023-08-06T02:08:30;3.37;;;2.40;;
81648;SDS011;71057;51.436;6.768;2023-08-06T02:10:55;3.80;;;2.70;;
81648;SDS011;71057;51.436;6.768;2023-08-06T02:13:20;3.90;;;2.83;;
81648;SDS011;71057;51.436;6.768;2023-08-06T02:15:45;6.47;;;2.90;;
81648;SDS011;71057;51.436;6.768;2023-08-06T02:18:12;4.72;;;2.30;;
81648;SDS011;71057;51.436;6.768;2023-08-06T02:20:38;4.20;;;2.65;;
81648;SDS011;71057;51.436;6.768;2023-08-06T02:23:03;3.43;;;2.60;;
81648;SDS011;71057;51.436;6.768;2023-08-06T02:25:28;4.90;;;3.07;;
81648;SDS011;71057;51.436;6.768;2023-08-06T02:27:53;5.07;;;2.83;;
81648;SDS011;71057;51.436;6.768;2023-08-06T02:30:18;5.00;;;2.83;;
81648;SDS011;71057;51.436;6.768;2023-08-06T02:32:44;3.80;;;2.40;;
81648;SDS011;71057;51.436;6.768;2023-08-06T02:35:09;5.50;;;2.80;;
81648;SDS011;71057;51.436;6.768;2023-08-06T02:37:34;3.47;;;2.63;;
81648;SDS011;71057;51.436;6.768;2023-08-06T02:39:59;6.10;;;2.40;;
81648;SDS011;71057;51.436;6.768;2023-08-06T02:42:24;4.43;;;3.20;;
81648;SDS011;71057;51.436;6.768;2023-08-06T02:44:51;3.83;;;2.42;;
81648;SDS011;71057;51.436;6.768;2023-08-06T02:47:17;3.90;;;2.63;;
81648;SDS011;71057;51.436;6.768;2023-08-06T02:49:42;3.63;;;2.57;;
81648;SDS011;71057;51.436;6.768;2023-08-06T02:52:08;4.13;;;3.08;;
81648;SDS011;71057;51.436;6.768;2023-08-06T02:54:33;3.73;;;2.80;;
81648;SDS011;71057;51.436;6.768;2023-08-06T02:56:58;4.35;;;2.63;;
81648;SDS011;71057;51.436;6.768;2023-08-06T02:59:23;5.05;;;2.60;;
81648;SDS011;71057;51.436;6.768;2023-08-06T03:01:48;3.00;;;2.37;;
81648;SDS011;71057;51.436;6.768;2023-08-06T03:04:13;4.40;;;2.47;;
81648;SDS011;71057;51.436;6.768;2023-08-06T03:06:39;4.47;;;4.07;;
81648;SDS011;71057;51.436;6.768;2023-08-06T03:09:04;2.93;;;2.30;;
81648;SDS011;71057;51.436;6.768;2023-08-06T03:11:29;4.70;;;2.80;;
81648;SDS011;71057;51.436;6.768;2023-08-06T03:13:54;5.03;;;2.30;;
81648;SDS011;71057;51.436;6.768;2023-08-06T03:16:19;3.10;;;2.40;;
81648;SDS011;71057;51.436;6.768;2023-08-06T03:18:45;4.67;;;2.30;;
81648;SDS011;71057;51.436;6.768;2023-08-06T03:21:10;4.47;;;2.40;;
81648;SDS011;71057;51.436;6.768;2023-08-06T03:23:35;3.43;;;2.30;;
81648;SDS011;71057;51.436;6.768;2023-08-06T03:26:00;4.47;;;2.63;;
81648;SDS011;71057;51.436;6.768;2023-08-06T03:28:26;5.00;;;2.40;;
81648;SDS011;71057;51.436;6.768;2023-08-06T03:30:58;4.60;;;2.70;;
81648;SDS011;71057;51.436;6.768;2023-08-06T03:33:23;3.15;;;2.60;;
81648;SDS011;71057;51.436;6.768;2023-08-06T03:35:48;3.13;;;1.97;;
81648;SDS011;71057;51.436;6.768;2023-08-06T03:38:14;6.00;;;2.97;;
81648;SDS011;71057;51.436;6.768;2023-08-06T03:40:39;3.72;;;2.60;;
81648;SDS011;71057;51.436;6.768;2023-08-06T03:43:04;3.27;;;2.20;;
81648;SDS011;71057;51.436;6.768;2023-08-06T03:45:29;4.93;;;2.93;;
81648;SDS011;71057;51.436;6.768;2023-08-06T03:47:54;4.90;;;2.67;;
81648;SDS011;71057;51.436;6.768;2023-08-06T03:50:19;5.37;;;2.87;;
81648;SDS011;71057;51.436;6.768;2023-08-06T03:52:45;4.57;;;2.65;;
81648;SDS011;71057;51.436;6.768;2023-08-06T03:55:10;3.93;;;2.30;;
81648;SDS011;71057;51.436;6.768;2023-08-06T03:57:35;4.15;;;2.60;;
81648;SDS011;71057;51.436;6.768;2023-08-06T04:00:00;6.17;;;2.70;;
81648;SDS011;71057;51.436;6.768;2023-08-06T04:02:26;4.13;;;2.58;;
81648;SDS011;71057;51.436;6.768;2023-08-06T04:04:51;3.78;;;2.92;;
81648;SDS011;71057;51.436;6.768;2023-08-06T04:07:18;3.78;;;2.85;;
81648;SDS011;71057;51.436;6.768;2023-08-06T04:12:38;5.10;;;3.03;;
81648;SDS011;71057;51.436;6.768;2023-08-06T04:15:04;4.88;;;3.05;;
81648;SDS011;71057;51.436;6.768;2023-08-06T04:17:29;3.20;;;2.58;;
81648;SDS011;71057;51.436;6.768;2023-08-06T04:19:54;3.80;;;3.27;;
81648;SDS011;71057;51.436;6.768;2023-08-06T04:22:20;4.60;;;2.70;;
81648;SDS011;71057;51.436;6.768;2023-08-06T04:24:45;4.95;;;2.92;;
81648;SDS011;71057;51.436;6.768;2023-08-06T04:27:10;3.27;;;2.97;;
81648;SDS011;71057;51.436;6.768;2023-08-06T04:29:36;4.10;;;2.70;;
81648;SDS011;71057;51.436;6.768;2023-08-06T04:32:01;4.65;;;2.22;;
81648;SDS011;71057;51.436;6.768;2023-08-06T04:34:27;5.75;;;2.50;;
81648;SDS011;71057;51.436;6.768;2023-08-06T04:36:52;3.07;;;2.50;;
81648;SDS011;71057;51.436;6.768;2023-08-06T04:39:17;4.13;;;3.07;;
81648;SDS011;71057;51.436;6.768;2023-08-06T04:41:42;6.97;;;2.73;;
81648;SDS011;71057;51.436;6.768;2023-08-06T04:44:08;5.05;;;2.70;;
81648;SDS011;71057;51.436;6.768;2023-08-06T04:46:33;3.30;;;2.37;;
81648;SDS011;71057;51.436;6.768;2023-08-06T04:48:58;3.67;;;2.50;;
81648;SDS011;71057;51.436;6.768;2023-08-06T04:51:23;4.70;;;3.10;;
81648;SDS011;71057;51.436;6.768;2023-08-06T04:53:48;3.57;;;2.60;;
81648;SDS011;71057;51.436;6.768;2023-08-06T04:56:14;4.47;;;2.73;;
81648;SDS011;71057;51.436;6.768;2023-08-06T04:58:39;3.85;;;2.35;;
81648;SDS011;71057;51.436;6.768;2023-08-06T05:01:04;3.13;;;2.40;;
81648;SDS011;71057;51.436;6.768;2023-08-06T05:03:29;3.10;;;2.50;;
81648;SDS011;71057;51.436;6.768;2023-08-06T05:05:54;4.97;;;2.97;;
81648;SDS011;71057;51.436;6.768;2023-08-06T05:08:20;3.95;;;2.60;;
81648;SDS011;71057;51.436;6.768;2023-08-06T05:10:45;2.87;;;2.23;;
81648;SDS011;71057;51.436;6.768;2023-08-06T05:13:10;3.87;;;2.10;;
81648;SDS011;71057;51.436;6.768;2023-08-06T05:15:36;3.55;;;2.30;;
81648;SDS011;71057;51.436;6.768;2023-08-06T05:18:01;4.17;;;2.13;;
81648;SDS011;71057;51.436;6.768;2023-08-06T05:20:26;4.93;;;2.43;;
81648;SDS011;71057;51.436;6.768;2023-08-06T05:22:51;4.30;;;2.80;;
81648;SDS011;71057;51.436;6.768;2023-08-06T05:25:16;3.67;;;2.43;;
81648;SDS011;71057;51.436;6.768;2023-08-06T05:27:42;4.77;;;2.67;;
81648;SDS011;71057;51.436;6.768;2023-08-06T05:30:07;4.93;;;2.20;;
81648;SDS011;71057;51.436;6.768;2023-08-06T05:32:33;4.93;;;2.35;;
81648;SDS011;71057;51.436;6.768;2023-08-06T05:34:58;5.10;;;2.37;;
81648;SDS011;71057;51.436;6.768;2023-08-06T05:37:23;4.00;;;2.50;;
81648;SDS011;71057;51.436;6.768;2023-08-06T05:39:48;3.25;;;2.20;;
81648;SDS011;71057;51.436;6.768;2023-08-06T05:42:13;3.67;;;2.40;;
81648;SDS011;71057;51.436;6.768;2023-08-06T05:44:38;3.73;;;2.40;;
81648;SDS011;71057;51.436;6.768;2023-08-06T05:47:03;5.17;;;2.37;;
81648;SDS011;71057;51.436;6.768;2023-08-06T05:49:29;2.93;;;2.40;;
81648;SDS011;71057;51.436;6.768;2023-08-06T05:51:54;3.85;;;2.65;;
81648;SDS011;71057;51.436;6.768;2023-08-06T05:54:19;3.77;;;2.30;;
81648;SDS011;71057;51.436;6.768;2023-08-06T05:56:44;4.67;;;2.20;;
81648;SDS011;71057;51.436;6.768;2023-08-06T05:59:09;4.13;;;2.30;;
81648;SDS011;71057;51.436;6.768;2023-08-06T06:01:35;4.43;;;2.73;;
81648;SDS011;71057;51.436;6.768;2023-08-06T06:04:00;3.63;;;2.40;;
81648;SDS011;71057;51.436;6.768;2023-08-06T06:06:25;2.92;;;2.22;;
81648;SDS011;71057;51.436;6.768;2023-08-06T06:08:50;3.53;;;2.17;;
81648;SDS011;71057;51.436;6.768;2023-08-06T06:11:15;3.40;;;2.08;;
81648;SDS011;71057;51.436;6.768;2023-08-06T06:13:41;3.77;;;2.20;;
81648;SDS011;71057;51.436;6.768;2023-08-06T06:16:06;6.27;;;2.13;;
81648;SDS011;71057;51.436;6.768;2023-08-06T06:18:31;4.03;;;2.33;;
81648;SDS011;71057;51.436;6.768;2023-08-06T06:20:56;4.30;;;2.00;;
81648;SDS011;71057;51.436;6.768;2023-08-06T06:23:21;7.23;;;2.77;;
81648;SDS011;71057;51.436;6.768;2023-08-06T06:25:47;3.67;;;2.20;;
81648;SDS011;71057;51.436;6.768;2023-08-06T06:28:12;3.33;;;2.40;;
81648;SDS011;71057;51.436;6.768;2023-08-06T06:30:38;4.13;;;2.60;;
81648;SDS011;71057;51.436;6.768;2023-08-06T06:33:03;4.57;;;2.43;;
81648;SDS011;71057;51.436;6.768;2023-08-06T06:35:28;4.47;;;2.20;;
81648;SDS011;71057;51.436;6.768;2023-08-06T06:37:53;5.23;;;2.70;;
81648;SDS011;71057;51.436;6.768;2023-08-06T06:40:19;4.00;;;2.00;;
81648;SDS011;71057;51.436;6.768;2023-08-06T06:42:44;3.83;;;2.53;;
81648;SDS011;71057;51.436;6.768;2023-08-06T06:45:09;3.57;;;3.13;;
81648;SDS011;71057;51.436;6.768;2023-08-06T06:47:35;3.90;;;2.95;;
81648;SDS011;71057;51.436;6.768;2023-08-06T06:50:00;4.70;;;3.13;;
81648;SDS011;71057;51.436;6.768;2023-08-06T06:52:25;3.30;;;3.00;;
81648;SDS011;71057;51.436;6.768;2023-08-06T06:54:50;4.87;;;3.17;;
81648;SDS011;71057;51.436;6.768;2023-08-06T06:57:17;4.53;;;3.38;;
81648;SDS011;71057;51.436;6.768;2023-08-06T06:59:43;5.10;;;2.60;;
81648;SDS011;71057;51.436;6.768;2023-08-06T07:02:08;4.63;;;3.30;;
81648;SDS011;71057;51.436;6.768;2023-08-06T07:04:33;3.80;;;2.87;;
81648;SDS011;71057;51.436;6.768;2023-08-06T07:06:58;3.00;;;2.70;;
81648;SDS011;71057;51.436;6.768;2023-08-06T07:09:23;3.20;;;2.80;;
81648;SDS011;71057;51.436;6.768;2023-08-06T07:11:48;4.23;;;3.30;;
81648;SDS011;71057;51.436;6.768;2023-08-06T07:14:14;3.90;;;2.87;;
81648;SDS011;71057;51.436;6.768;2023-08-06T07:16:39;3.45;;;3.03;;
81648;SDS011;71057;51.436;6.768;2023-08-06T07:19:04;3.93;;;2.63;;
81648;SDS011;71057;51.436;6.768;2023-08-06T07:21:30;3.75;;;3.38;;
81648;SDS011;71057;51.436;6.768;2023-08-06T07:23:55;4.00;;;2.60;;
81648;SDS011;71057;51.436;6.768;2023-08-06T07:26:21;3.87;;;2.63;;
81648;SDS011;71057;51.436;6.768;2023-08-06T07:28:46;5.67;;;2.57;;
81648;SDS011;71057;51.436;6.768;2023-08-06T07:31:11;3.67;;;2.70;;
81648;SDS011;71057;51.436;6.768;2023-08-06T07:33:36;4.00;;;2.50;;
81648;SDS011;71057;51.436;6.768;2023-08-06T07:36:12;4.13;;;2.53;;
81648;SDS011;71057;51.436;6.768;2023-08-06T07:38:37;3.42;;;2.45;;
81648;SDS011;71057;51.436;6.768;2023-08-06T07:41:02;3.50;;;2.78;;
81648;SDS011;71057;51.436;6.768;2023-08-06T07:43:28;4.03;;;2.53;;
81648;SDS011;71057;51.436;6.768;2023-08-06T07:45:53;5.27;;;3.17;;
81648;SDS011;71057;51.436;6.768;2023-08-06T07:48:18;4.47;;;3.67;;
81648;SDS011;71057;51.436;6.768;2023-08-06T07:50:43;5.10;;;3.87;;
81648;SDS011;71057;51.436;6.768;2023-08-06T07:53:15;4.88;;;3.95;;
81648;SDS011;71057;51.436;6.768;2023-08-06T07:55:40;4.37;;;3.70;;
81648;SDS011;71057;51.436;6.768;2023-08-06T07:58:05;5.30;;;4.40;;
81648;SDS011;71057;51.436;6.768;2023-08-06T08:00:30;5.73;;;4.07;;
81648;SDS011;71057;51.436;6.768;2023-08-06T08:02:55;7.70;;;4.97;;
81648;SDS011;71057;51.436;6.768;2023-08-06T08:05:20;6.45;;;5.70;;
81648;SDS011;71057;51.436;6.768;2023-08-06T08:07:46;7.53;;;6.00;;
81648;SDS011;71057;51.436;6.768;2023-08-06T08:10:11;7.80;;;5.70;;
81648;SDS011;71057;51.436;6.768;2023-08-06T08:12:36;5.93;;;5.33;;
81648;SDS011;71057;51.436;6.768;2023-08-06T08:15:01;5.07;;;4.27;;
81648;SDS011;71057;51.436;6.768;2023-08-06T08:17:26;6.10;;;4.37;;
81648;SDS011;71057;51.436;6.768;2023-08-06T08:19:52;5.73;;;4.17;;
81648;SDS011;71057;51.436;6.768;2023-08-06T08:22:17;5.23;;;4.00;;
81648;SDS011;71057;51.436;6.768;2023-08-06T08:24:42;4.57;;;3.53;;
81648;SDS011;71057;51.436;6.768;2023-08-06T08:27:07;5.73;;;3.60;;
81648;SDS011;71057;51.436;6.768;2023-08-06T08:29:32;4.60;;;3.13;;
81648;SDS011;71057;51.436;6.768;2023-08-06T08:31:57;4.20;;;2.90;;
81648;SDS011;71057;51.436;6.768;2023-08-06T08:34:23;5.57;;;3.20;;
81648;SDS011;71057;51.436;6.768;2023-08-06T08:36:48;4.37;;;3.00;;
81648;SDS011;71057;51.436;6.768;2023-08-06T08:39:14;4.85;;;3.50;;
81648;SDS011;71057;51.436;6.768;2023-08-06T08:41:40;6.20;;;3.13;;
81648;SDS011;71057;51.436;6.768;2023-08-06T08:44:08;4.27;;;2.90;;
81648;SDS011;71057;51.436;6.768;2023-08-06T08:46:34;3.60;;;3.15;;
81648;SDS011;71057;51.436;6.768;2023-08-06T08:49:00;4.68;;;3.83;;
81648;SDS011;71057;51.436;6.768;2023-08-06T08:51:27;4.65;;;3.97;;
81648;SDS011;71057;51.436;6.768;2023-08-06T08:53:53;4.82;;;3.75;;
81648;SDS011;71057;51.436;6.768;2023-08-06T08:56:21;4.22;;;3.28;;
81648;SDS011;71057;51.436;6.768;2023-08-06T08:58:46;4.55;;;3.78;;
81648;SDS011;71057;51.436;6.768;2023-08-06T09:01:11;3.83;;;3.40;;
81648;SDS011;71057;51.436;6.768;2023-08-06T09:03:37;3.63;;;2.88;;
81648;SDS011;71057;51.436;6.768;2023-08-06T09:06:02;3.17;;;2.80;;
81648;SDS011;71057;51.436;6.768;2023-08-06T09:08:30;3.50;;;2.83;;
81648;SDS011;71057;51.436;6.768;2023-08-06T09:10:58;2.88;;;2.25;;
81648;SDS011;71057;51.436;6.768;2023-08-06T09:13:25;3.45;;;2.20;;
81648;SDS011;71057;51.436;6.768;2023-08-06T09:15:51;2.10;;;1.90;;
81648;SDS011;71057;51.436;6.768;2023-08-06T09:18:21;3.60;;;1.97;;
81648;SDS011;71057;51.436;6.768;2023-08-06T09:20:49;3.42;;;1.52;;
81648;SDS011;71057;51.436;6.768;2023-08-06T09:23:15;5.20;;;2.37;;
81648;SDS011;71057;51.436;6.768;2023-08-06T09:25:40;4.90;;;2.15;;
81648;SDS011;71057;51.436;6.768;2023-08-06T09:28:06;4.33;;;2.00;;
81648;SDS011;71057;51.436;6.768;2023-08-06T09:30:36;3.03;;;2.40;;
81648;SDS011;71057;51.436;6.768;2023-08-06T09:33:02;4.07;;;2.70;;
81648;SDS011;71057;51.436;6.768;2023-08-06T09:35:28;5.70;;;3.35;;
81648;SDS011;71057;51.436;6.768;2023-08-06T09:37:54;5.47;;;2.97;;
81648;SDS011;71057;51.436;6.768;2023-08-06T09:40:37;3.77;;;2.80;;
81648;SDS011;71057;51.436;6.768;2023-08-06T09:43:02;4.57;;;2.70;;
81648;SDS011;71057;51.436;6.768;2023-08-06T09:45:31;4.57;;;2.87;;
81648;SDS011;71057;51.436;6.768;2023-08-06T09:48:00;4.80;;;3.30;;
81648;SDS011;71057;51.436;6.768;2023-08-06T09:50:29;3.42;;;2.53;;
81648;SDS011;71057;51.436;6.768;2023-08-06T09:52:56;4.75;;;2.40;;
81648;SDS011;71057;51.436;6.768;2023-08-06T09:55:21;5.65;;;2.90;;
81648;SDS011;71057;51.436;6.768;2023-08-06T09:57:46;5.57;;;2.90;;
81648;SDS011;71057;51.436;6.768;2023-08-06T10:00:12;4.68;;;3.55;;
81648;SDS011;71057;51.436;6.768;2023-08-06T10:02:38;5.47;;;4.22;;
81648;SDS011;71057;51.436;6.768;2023-08-06T10:05:09;6.15;;;4.43;;
81648;SDS011;71057;51.436;6.768;2023-08-06T10:07:35;5.13;;;4.63;;
81648;SDS011;71057;51.436;6.768;2023-08-06T10:10:00;6.43;;;4.72;;
81648;SDS011;71057;51.436;6.768;2023-08-06T10:12:26;6.63;;;5.38;;
81648;SDS011;71057;51.436;6.768;2023-08-06T10:14:53;5.72;;;5.13;;
81648;SDS011;71057;51.436;6.768;2023-08-06T10:17:19;5.15;;;4.38;;
81648;SDS011;71057;51.436;6.768;2023-08-06T10:19:45;6.28;;;4.63;;
81648;SDS011;71057;51.436;6.768;2023-08-06T10:22:14;5.35;;;4.78;;
81648;SDS011;71057;51.436;6.768;2023-08-06T10:24:49;5.28;;;4.78;;
81648;SDS011;71057;51.436;6.768;2023-08-06T10:27:22;5.72;;;5.22;;
81648;SDS011;71057;51.436;6.768;2023-08-06T10:29:47;5.95;;;5.45;;
81648;SDS011;71057;51.436;6.768;2023-08-06T10:32:14;6.32;;;5.82;;
81648;SDS011;71057;51.436;6.768;2023-08-06T10:34:52;5.97;;;4.83;;
81648;SDS011;71057;51.436;6.768;2023-08-06T10:37:18;5.57;;;5.05;;
81648;SDS011;71057;51.436;6.768;2023-08-06T10:39:52;5.57;;;5.00;;
81648;SDS011;71057;51.436;6.768;2023-08-06T10:42:21;7.43;;;6.22;;
81648;SDS011;71057;51.436;6.768;2023-08-06T10:47:30;5.03;;;3.80;;
81648;SDS011;71057;51.436;6.768;2023-08-06T10:50:02;3.45;;;2.75;;
81648;SDS011;71057;51.436;6.768;2023-08-06T10:52:28;2.85;;;1.95;;
81648;SDS011;71057;51.436;6.768;2023-08-06T10:54:54;3.10;;;1.80;;
81648;SDS011;71057;51.436;6.768;2023-08-06T10:57:19;2.88;;;1.60;;
81648;SDS011;71057;51.436;6.768;2023-08-06T10:59:44;2.17;;;1.30;;
81648;SDS011;71057;51.436;6.768;2023-08-06T11:02:09;2.90;;;1.57;;
81648;SDS011;71057;51.436;6.768;2023-08-06T11:04:35;2.80;;;1.50;;
81648;SDS011;71057;51.436;6.768;2023-08-06T11:07:00;2.05;;;1.40;;
81648;SDS011;71057;51.436;6.768;2023-08-06T11:09:26;1.58;;;1.13;;
81648;SDS011;71057;51.436;6.768;2023-08-06T11:11:51;1.80;;;1.45;;
81648;SDS011;71057;51.436;6.768;2023-08-06T11:14:16;1.93;;;1.33;;
81648;SDS011;71057;51.436;6.768;2023-08-06T11:16:42;4.43;;;1.60;;
81648;SDS011;71057;51.436;6.768;2023-08-06T11:19:07;2.77;;;1.83;;
81648;SDS011;71057;51.436;6.768;2023-08-06T11:21:33;2.58;;;1.42;;
81648;SDS011;71057;51.436;6.768;2023-08-06T11:23:58;3.17;;;1.70;;
81648;SDS011;71057;51.436;6.768;2023-08-06T11:26:23;3.25;;;1.80;;
81648;SDS011;71057;51.436;6.768;2023-08-06T11:28:49;3.55;;;2.13;;
81648;SDS011;71057;51.436;6.768;2023-08-06T11:31:18;3.28;;;1.80;;
81648;SDS011;71057;51.436;6.768;2023-08-06T11:33:43;2.55;;;2.08;;
81648;SDS011;71057;51.436;6.768;2023-08-06T11:36:08;2.87;;;2.30;;
81648;SDS011;71057;51.436;6.768;2023-08-06T11:38:33;3.53;;;1.80;;
81648;SDS011;71057;51.436;6.768;2023-08-06T11:40:59;2.27;;;1.83;;
81648;SDS011;71057;51.436;6.768;2023-08-06T11:43:24;2.83;;;1.90;;
81648;SDS011;71057;51.436;6.768;2023-08-06T11:45:49;2.60;;;1.90;;
81648;SDS011;71057;51.436;6.768;2023-08-06T11:48:15;2.97;;;1.30;;
81648;SDS011;71057;51.436;6.768;2023-08-06T11:50:41;3.13;;;1.80;;
81648;SDS011;71057;51.436;6.768;2023-08-06T11:53:07;2.07;;;1.57;;
81648;SDS011;71057;51.436;6.768;2023-08-06T11:55:32;3.13;;;1.60;;
81648;SDS011;71057;51.436;6.768;2023-08-06T11:57:57;2.78;;;1.55;;
81648;SDS011;71057;51.436;6.768;2023-08-06T12:00:24;1.90;;;1.40;;
81648;SDS011;71057;51.436;6.768;2023-08-06T12:02:49;1.40;;;0.95;;
81648;SDS011;71057;51.436;6.768;2023-08-06T12:05:17;1.17;;;0.82;;
81648;SDS011;71057;51.436;6.768;2023-08-06T12:07:50;2.28;;;1.27;;
81648;SDS011;71057;51.436;6.768;2023-08-06T12:10:15;2.67;;;1.10;;
81648;SDS011;71057;51.436;6.768;2023-08-06T12:12:41;1.50;;;1.00;;
81648;SDS011;71057;51.436;6.768;2023-08-06T12:15:06;1.50;;;1.00;;
81648;SDS011;71057;51.436;6.768;2023-08-06T12:17:32;1.55;;;1.10;;
81648;SDS011;71057;51.436;6.768;2023-08-06T12:19:57;1.83;;;1.53;;
81648;SDS011;71057;51.436;6.768;2023-08-06T12:22:22;1.90;;;1.35;;
81648;SDS011;71057;51.436;6.768;2023-08-06T12:24:48;1.77;;;1.20;;
81648;SDS011;71057;51.436;6.768;2023-08-06T12:27:13;1.60;;;1.20;;
81648;SDS011;71057;51.436;6.768;2023-08-06T12:29:42;2.45;;;1.65;;
81648;SDS011;71057;51.436;6.768;2023-08-06T12:32:08;1.83;;;1.20;;
81648;SDS011;71057;51.436;6.768;2023-08-06T12:34:33;2.53;;;1.60;;
81648;SDS011;71057;51.436;6.768;2023-08-06T12:36:58;2.73;;;1.73;;
81648;SDS011;71057;51.436;6.768;2023-08-06T12:39:24;3.00;;;1.93;;
81648;SDS011;71057;51.436;6.768;2023-08-06T12:41:49;2.17;;;1.57;;
81648;SDS011;71057;51.436;6.768;2023-08-06T12:44:14;2.60;;;2.40;;
81648;SDS011;71057;51.436;6.768;2023-08-06T12:46:39;2.87;;;1.80;;
81648;SDS011;71057;51.436;6.768;2023-08-06T12:49:05;2.67;;;2.00;;
81648;SDS011;71057;51.436;6.768;2023-08-06T12:51:30;2.80;;;2.10;;
81648;SDS011;71057;51.436;6.768;2023-08-06T12:53:55;2.72;;;2.00;;
81648;SDS011;71057;51.436;6.768;2023-08-06T12:56:21;2.90;;;2.10;;
81648;SDS011;71057;51.436;6.768;2023-08-06T12:58:46;2.70;;;1.97;;
81648;SDS011;71057;51.436;6.768;2023-08-06T13:01:11;3.13;;;1.90;;
81648;SDS011;71057;51.436;6.768;2023-08-06T13:03:36;4.17;;;2.30;;
81648;SDS011;71057;51.436;6.768;2023-08-06T13:06:01;2.87;;;2.00;;
81648;SDS011;71057;51.436;6.768;2023-08-06T13:08:26;3.00;;;2.50;;
81648;SDS011;71057;51.436;6.768;2023-08-06T13:10:52;5.00;;;2.73;;
81648;SDS011;71057;51.436;6.768;2023-08-06T13:13:17;3.47;;;2.40;;
81648;SDS011;71057;51.436;6.768;2023-08-06T13:15:42;5.30;;;3.00;;
81648;SDS011;71057;51.436;6.768;2023-08-06T13:18:07;4.80;;;3.43;;
81648;SDS011;71057;51.436;6.768;2023-08-06T13:20:33;4.00;;;2.87;;
81648;SDS011;71057;51.436;6.768;2023-08-06T13:22:58;4.43;;;3.43;;
81648;SDS011;71057;51.436;6.768;2023-08-06T13:25:26;3.45;;;2.45;;
81648;SDS011;71057;51.436;6.768;2023-08-06T13:27:51;2.97;;;2.23;;
81648;SDS011;71057;51.436;6.768;2023-08-06T13:30:16;3.63;;;2.60;;
81648;SDS011;71057;51.436;6.768;2023-08-06T13:32:43;4.90;;;2.67;;
81648;SDS011;71057;51.436;6.768;2023-08-06T13:35:08;4.90;;;2.53;;
81648;SDS011;71057;51.436;6.768;2023-08-06T13:37:33;2.83;;;2.30;;
81648;SDS011;71057;51.436;6.768;2023-08-06T13:39:58;2.97;;;2.00;;
81648;SDS011;71057;51.436;6.768;2023-08-06T13:42:24;3.73;;;2.50;;
81648;SDS011;71057;51.436;6.768;2023-08-06T13:44:49;3.07;;;2.00;;
81648;SDS011;71057;51.436;6.768;2023-08-06T13:47:14;2.83;;;2.00;;
81648;SDS011;71057;51.436;6.768;2023-08-06T13:49:39;2.63;;;2.10;;
81648;SDS011;71057;51.436;6.768;2023-08-06T13:52:05;4.10;;;2.17;;
81648;SDS011;71057;51.436;6.768;2023-08-06T13:54:30;3.40;;;2.10;;
81648;SDS011;71057;51.436;6.768;2023-08-06T13:56:55;2.80;;;2.07;;
81648;SDS011;71057;51.436;6.768;2023-08-06T13:59:20;2.60;;;1.80;;
81648;SDS011;71057;51.436;6.768;2023-08-06T14:01:45;3.80;;;1.60;;
81648;SDS011;71057;51.436;6.768;2023-08-06T14:04:12;2.50;;;1.90;;
81648;SDS011;71057;51.436;6.768;2023-08-06T14:06:37;2.97;;;1.90;;
81648;SDS011;71057;51.436;6.768;2023-08-06T14:09:02;2.67;;;2.00;;
81648;SDS011;71057;51.436;6.768;2023-08-06T14:11:27;2.60;;;1.75;;
81648;SDS011;71057;51.436;6.768;2023-08-06T14:13:53;2.87;;;1.90;;
81648;SDS011;71057;51.436;6.768;2023-08-06T14:16:18;2.93;;;1.80;;
81648;SDS011;71057;51.436;6.768;2023-08-06T14:18:43;3.00;;;2.27;;
81648;SDS011;71057;51.436;6.768;2023-08-06T14:21:08;3.47;;;1.60;;
81648;SDS011;71057;51.436;6.768;2023-08-06T14:23:33;3.92;;;1.75;;
81648;SDS011;71057;51.436;6.768;2023-08-06T14:25:59;2.10;;;1.60;;
81648;SDS011;71057;51.436;6.768;2023-08-06T14:28:24;5.13;;;2.33;;
81648;SDS011;71057;51.436;6.768;2023-08-06T14:30:49;3.17;;;2.00;;
81648;SDS011;71057;51.436;6.768;2023-08-06T14:33:14;3.50;;;2.00;;
81648;SDS011;71057;51.436;6.768;2023-08-06T14:35:40;2.20;;;1.90;;
81648;SDS011;71057;51.436;6.768;2023-08-06T14:38:05;3.00;;;1.60;;
81648;SDS011;71057;51.436;6.768;2023-08-06T14:40:30;2.50;;;1.50;;
81648;SDS011;71057;51.436;6.768;2023-08-06T14:43:00;2.30;;;1.67;;
81648;SDS011;71057;51.436;6.768;2023-08-06T14:45:25;3.03;;;1.77;;
81648;SDS011;71057;51.436;6.768;2023-08-06T14:47:50;1.90;;;1.30;;
81648;SDS011;71057;51.436;6.768;2023-08-06T14:50:15;2.53;;;1.77;;
81648;SDS011;71057;51.436;6.768;2023-08-06T14:52:40;2.33;;;1.30;;